createdAt,value
2023-03-26T00:00:07.102Z,1.15
2023-03-26T00:02:33.839Z,1.15
2023-03-26T00:05:00.471Z,1.30
2023-03-26T00:07:27.211Z,1.73
2023-03-26T00:09:53.814Z,1.35
2023-03-26T00:12:20.536Z,1.55
2023-03-26T00:14:47.234Z,1.23
2023-03-26T00:17:15.490Z,0.95
2023-03-26T00:19:42.040Z,1.40
2023-03-26T00:22:08.719Z,1.10
2023-03-26T00:24:35.331Z,1.08
2023-03-26T00:27:01.912Z,1.30
2023-03-26T00:29:28.736Z,0.93
2023-03-26T00:31:55.307Z,1.25
2023-03-26T00:34:23.295Z,1.27
2023-03-26T00:36:49.978Z,1.33
2023-03-26T00:39:16.621Z,1.17
2023-03-26T00:41:43.437Z,0.90
2023-03-26T00:44:10.833Z,1.45
2023-03-26T00:46:37.562Z,1.20
2023-03-26T00:49:04.837Z,0.82
2023-03-26T00:51:33.033Z,0.70
2023-03-26T00:53:59.870Z,0.90
2023-03-26T00:56:26.757Z,1.10
2023-03-26T00:58:53.502Z,1.25
2023-03-26T01:01:25.002Z,1.45
2023-03-26T01:04:05.295Z,1.50
2023-03-26T01:06:38.817Z,1.45
2023-03-26T01:09:14.350Z,1.38
2023-03-26T01:11:41.572Z,1.63
2023-03-26T01:14:12.260Z,1.63
2023-03-26T01:16:43.125Z,1.20
2023-03-26T01:19:17.817Z,1.52
2023-03-26T01:21:45.893Z,1.52
2023-03-26T01:24:14.091Z,1.27
2023-03-26T01:26:53.100Z,1.17
2023-03-26T01:29:25.889Z,1.05
2023-03-26T01:31:59.341Z,1.08
2023-03-26T01:37:05.259Z,0.82
2023-03-26T01:39:41.275Z,1.05
2023-03-26T01:42:11.468Z,0.85
2023-03-26T01:44:44.062Z,0.57
2023-03-26T01:47:12.610Z,0.90
2023-03-26T01:49:39.337Z,0.63
2023-03-26T01:52:13.067Z,1.00
2023-03-26T01:54:41.450Z,1.00
2023-03-26T01:57:17.953Z,0.88
2023-03-26T02:00:01.860Z,0.90
2023-03-26T02:02:36.468Z,0.90
2023-03-26T02:05:12.704Z,0.98
2023-03-26T02:07:43.974Z,0.90
2023-03-26T02:10:15.254Z,1.02
2023-03-26T02:12:43.101Z,1.00
2023-03-26T02:15:11.108Z,0.95
2023-03-26T02:17:37.787Z,1.40
2023-03-26T02:20:05.280Z,1.30
2023-03-26T02:22:31.943Z,1.30
2023-03-26T02:24:58.535Z,1.70
2023-03-26T02:27:26.467Z,1.55
2023-03-26T02:29:53.135Z,1.40
2023-03-26T02:32:19.764Z,1.38
2023-03-26T02:34:46.464Z,1.30
2023-03-26T02:37:13.162Z,1.30
2023-03-26T02:39:39.839Z,1.10
2023-03-26T02:42:06.389Z,1.60
2023-03-26T02:44:34.342Z,1.52
2023-03-26T02:47:00.951Z,1.70
2023-03-26T02:49:27.541Z,1.38
2023-03-26T02:51:54.161Z,1.67
2023-03-26T02:54:21.025Z,1.52
2023-03-26T02:56:47.644Z,1.30
2023-03-26T02:59:14.337Z,1.52
2023-03-26T03:01:42.326Z,1.50
2023-03-26T03:04:09.012Z,1.52
2023-03-26T03:06:36.351Z,1.58
2023-03-26T03:09:03.051Z,1.48
2023-03-26T03:11:29.614Z,1.27
2023-03-26T03:13:56.428Z,1.92
2023-03-26T03:16:23.305Z,1.60
2023-03-26T03:18:51.428Z,1.73
2023-03-26T03:21:17.962Z,1.77
2023-03-26T03:23:44.577Z,1.52
2023-03-26T03:26:14.300Z,1.75
2023-03-26T03:28:41.189Z,1.90
2023-03-26T03:31:07.820Z,1.80
2023-03-26T03:33:34.482Z,1.55
2023-03-26T03:36:02.511Z,1.70
2023-03-26T03:38:29.162Z,1.35
2023-03-26T03:40:55.773Z,1.60
2023-03-26T03:43:22.388Z,1.70
2023-03-26T03:45:49.076Z,1.70
2023-03-26T03:48:15.682Z,1.70
2023-03-26T03:50:42.270Z,1.50
2023-03-26T03:53:10.265Z,2.78
2023-03-26T03:55:36.821Z,2.13
2023-03-26T03:58:03.830Z,1.77
2023-03-26T04:00:30.455Z,1.80
2023-03-26T04:02:57.078Z,1.83
2023-03-26T04:05:23.775Z,1.80
2023-03-26T04:07:50.528Z,1.70
2023-03-26T04:10:18.692Z,1.52
2023-03-26T04:12:45.290Z,1.83
2023-03-26T04:15:11.916Z,2.30
2023-03-26T04:17:38.482Z,1.77
2023-03-26T04:20:06.235Z,1.50
2023-03-26T04:22:32.827Z,1.38
2023-03-26T04:24:59.465Z,1.40
2023-03-26T04:27:31.302Z,1.40
2023-03-26T04:30:00.913Z,1.30
2023-03-26T04:32:30.429Z,1.80
2023-03-26T04:34:57.796Z,1.05
2023-03-26T04:37:26.999Z,0.90
2023-03-26T04:39:53.808Z,1.30
2023-03-26T04:42:20.515Z,1.08
2023-03-26T04:44:48.597Z,1.25
2023-03-26T04:47:15.217Z,1.20
2023-03-26T04:49:41.817Z,1.10
2023-03-26T04:52:10.600Z,1.38
2023-03-26T04:54:37.548Z,1.40
2023-03-26T04:57:08.941Z,1.40
2023-03-26T04:59:35.782Z,1.48
2023-03-26T05:02:05.746Z,1.60
2023-03-26T05:04:33.059Z,1.73
2023-03-26T05:06:59.937Z,1.88
2023-03-26T05:09:27.344Z,1.80
2023-03-26T05:11:54.423Z,1.65
2023-03-26T05:14:21.122Z,1.83
2023-03-26T05:16:49.645Z,1.65
2023-03-26T05:19:17.656Z,1.50
2023-03-26T05:21:44.424Z,1.38
2023-03-26T05:24:11.077Z,1.10
2023-03-26T05:26:37.825Z,1.45
2023-03-26T05:29:04.583Z,1.23
2023-03-26T05:31:31.288Z,1.40
2023-03-26T05:33:58.445Z,1.45
2023-03-26T05:36:26.643Z,1.50
2023-03-26T05:38:53.352Z,1.30
2023-03-26T05:41:20.028Z,1.75
2023-03-26T05:43:46.645Z,1.75
2023-03-26T05:46:14.354Z,1.75
2023-03-26T05:48:41.117Z,0.95
2023-03-26T05:51:08.242Z,1.15
2023-03-26T05:53:36.325Z,1.83
2023-03-26T05:56:03.025Z,1.20
2023-03-26T05:58:31.748Z,1.50
2023-03-26T06:00:58.780Z,1.10
2023-03-26T06:03:26.020Z,1.73
2023-03-26T06:05:52.773Z,1.50
2023-03-26T06:08:19.779Z,1.73
2023-03-26T06:10:48.069Z,1.40
2023-03-26T06:13:14.693Z,1.70
2023-03-26T06:15:41.607Z,1.30
2023-03-26T06:18:08.483Z,1.65
2023-03-26T06:20:35.176Z,1.48
2023-03-26T06:23:01.803Z,1.80
2023-03-26T06:25:28.423Z,1.80
2023-03-26T06:27:56.663Z,1.40
2023-03-26T06:30:23.208Z,1.50
2023-03-26T06:32:49.797Z,1.33
2023-03-26T06:35:16.570Z,1.55
2023-03-26T06:37:43.198Z,1.20
2023-03-26T06:40:10.751Z,1.30
2023-03-26T06:43:09.668Z,1.10
2023-03-26T06:45:25.502Z,1.42
2023-03-26T06:47:52.198Z,0.93
2023-03-26T06:50:19.687Z,1.30
2023-03-26T06:52:46.313Z,0.93
2023-03-26T06:55:14.281Z,1.08
2023-03-26T06:57:40.940Z,1.27
2023-03-26T07:00:09.069Z,1.02
2023-03-26T07:02:37.262Z,1.48
2023-03-26T07:05:04.296Z,1.27
2023-03-26T07:07:30.876Z,1.05
2023-03-26T07:09:57.842Z,1.20
2023-03-26T07:12:24.574Z,0.90
2023-03-26T07:14:51.194Z,0.98
2023-03-26T07:17:17.796Z,1.67
2023-03-26T07:19:45.750Z,1.58
2023-03-26T07:22:18.896Z,1.67
2023-03-26T07:24:46.203Z,1.10
2023-03-26T07:27:27.836Z,1.20
2023-03-26T07:29:59.599Z,0.95
2023-03-26T07:32:32.805Z,1.05
2023-03-26T07:35:08.718Z,1.30
2023-03-26T07:37:48.327Z,1.50
2023-03-26T07:40:28.731Z,1.77
2023-03-26T07:43:06.043Z,1.75
2023-03-26T07:45:39.402Z,0.95
2023-03-26T07:50:38.297Z,1.58
2023-03-26T07:53:05.308Z,1.52
2023-03-26T07:55:32.213Z,1.73
2023-03-26T07:58:09.743Z,1.10
2023-03-26T08:00:43.789Z,1.00
2023-03-26T08:03:31.400Z,1.83
2023-03-26T08:06:11.353Z,1.80
2023-03-26T08:08:47.958Z,1.48
2023-03-26T08:11:26.847Z,1.25
2023-03-26T08:14:04.099Z,1.25
2023-03-26T08:16:38.690Z,1.55
2023-03-26T08:19:15.889Z,1.90
2023-03-26T08:21:50.761Z,1.92
2023-03-26T08:24:23.110Z,1.55
2023-03-26T08:26:58.327Z,1.45
2023-03-26T08:29:33.581Z,1.50
2023-03-26T08:32:01.502Z,1.27
2023-03-26T08:34:28.189Z,1.50
2023-03-26T08:36:56.149Z,1.48
2023-03-26T08:39:22.714Z,1.40
2023-03-26T08:42:19.613Z,1.63
2023-03-26T08:45:20.771Z,1.67
2023-03-26T08:48:20.877Z,1.40
2023-03-26T08:51:18.603Z,1.42
2023-03-26T08:54:25.845Z,1.48
2023-03-26T08:56:57.980Z,1.30
2023-03-26T09:00:09.663Z,1.30
2023-03-26T09:03:04.491Z,1.40
2023-03-26T09:06:04.939Z,2.15
2023-03-26T09:09:08.318Z,1.70
2023-03-26T09:12:12.991Z,1.30
2023-03-26T09:17:50.511Z,1.00
2023-03-26T09:21:05.273Z,1.33
2023-03-26T09:24:13.716Z,1.05
2023-03-26T09:26:48.983Z,1.52
2023-03-26T09:29:46.076Z,1.30
2023-03-26T09:32:38.463Z,1.40
2023-03-26T09:35:19.647Z,1.65
2023-03-26T09:37:58.054Z,1.38
2023-03-26T09:40:35.549Z,1.42
2023-03-26T09:43:37.975Z,2.28
2023-03-26T09:46:21.720Z,2.20
2023-03-26T09:49:07.622Z,1.75
2023-03-26T09:52:01.878Z,1.63
2023-03-26T09:54:48.452Z,1.63
2023-03-26T09:57:26.144Z,1.98
2023-03-26T10:00:08.059Z,2.55
2023-03-26T10:02:56.242Z,2.45
2023-03-26T10:05:49.748Z,1.80
2023-03-26T10:08:41.989Z,1.73
2023-03-26T10:11:18.618Z,1.77
2023-03-26T10:13:58.095Z,1.85
2023-03-26T10:16:32.727Z,2.15
2023-03-26T10:19:20.076Z,2.03
2023-03-26T10:21:56.793Z,1.60
2023-03-26T10:24:38.304Z,2.20
2023-03-26T10:27:30.661Z,2.25
2023-03-26T10:30:39.909Z,2.05
2023-03-26T10:33:19.115Z,2.28
2023-03-26T10:35:59.776Z,3.08
2023-03-26T10:38:41.652Z,2.88
2023-03-26T10:41:16.730Z,2.10
2023-03-26T10:44:08.570Z,1.80
2023-03-26T10:46:59.915Z,2.00
2023-03-26T10:49:54.661Z,2.22
2023-03-26T10:52:25.528Z,2.38
2023-03-26T10:54:56.644Z,1.98
2023-03-26T10:57:34.013Z,2.28
2023-03-26T11:00:12.637Z,2.30
2023-03-26T11:02:44.623Z,1.95
2023-03-26T11:05:34.377Z,2.28
2023-03-26T11:08:10.557Z,2.42
2023-03-26T11:10:47.598Z,1.90
2023-03-26T11:13:21.398Z,2.28
2023-03-26T11:15:56.970Z,3.17
2023-03-26T11:18:32.318Z,1.70
2023-03-26T11:21:19.659Z,1.77
2023-03-26T11:24:05.442Z,1.73
2023-03-26T11:26:44.001Z,2.03
2023-03-26T11:29:31.417Z,1.80
2023-03-26T11:32:05.255Z,1.60
2023-03-26T11:34:37.691Z,1.40
2023-03-26T11:37:12.705Z,1.70
2023-03-26T11:39:48.444Z,2.72
2023-03-26T11:42:17.413Z,1.65
2023-03-26T11:44:48.233Z,3.38
2023-03-26T11:47:21.259Z,2.33
2023-03-26T11:49:51.106Z,1.40
2023-03-26T11:52:17.784Z,1.60
2023-03-26T11:54:45.992Z,1.65
2023-03-26T11:57:17.230Z,1.70
2023-03-26T11:59:57.319Z,1.77
2023-03-26T12:02:27.065Z,1.80
2023-03-26T12:05:10.920Z,1.60
2023-03-26T12:07:45.789Z,1.75
2023-03-26T12:10:24.977Z,1.90
2023-03-26T12:12:54.909Z,2.10
2023-03-26T12:15:22.124Z,1.13
2023-03-26T12:17:50.396Z,1.42
2023-03-26T12:20:33.465Z,1.40
2023-03-26T12:23:01.264Z,1.90
2023-03-26T12:25:31.117Z,1.42
2023-03-26T12:28:00.137Z,1.30
2023-03-26T12:30:28.204Z,1.40
2023-03-26T12:32:57.891Z,1.05
2023-03-26T12:35:26.784Z,1.13
2023-03-26T12:37:54.812Z,1.50
2023-03-26T12:40:31.061Z,1.13
2023-03-26T12:44:46.260Z,1.50
2023-03-26T12:47:54.921Z,1.45
2023-03-26T12:48:37.841Z,1.67
2023-03-26T12:51:12.980Z,1.42
2023-03-26T12:53:59.628Z,1.40
2023-03-26T12:56:31.815Z,1.17
2023-03-26T12:59:16.280Z,1.42
2023-03-26T13:01:53.897Z,1.70
2023-03-26T13:04:37.646Z,1.48
2023-03-26T13:09:47.167Z,1.30
2023-03-26T13:12:29.269Z,1.40
2023-03-26T13:15:05.453Z,1.40
2023-03-26T13:17:39.413Z,1.30
2023-03-26T13:20:11.688Z,1.77
2023-03-26T13:22:47.604Z,1.42
2023-03-26T13:25:25.045Z,1.52
2023-03-26T13:28:02.942Z,1.33
2023-03-26T13:30:36.839Z,1.75
2023-03-26T13:33:23.250Z,1.95
2023-03-26T13:36:14.340Z,1.40
2023-03-26T13:38:59.076Z,1.40
2023-03-26T13:41:38.317Z,1.30
2023-03-26T13:44:20.594Z,1.45
2023-03-26T13:46:52.313Z,1.55
2023-03-26T13:49:24.424Z,0.93
2023-03-26T13:51:56.029Z,1.55
2023-03-26T13:54:28.546Z,1.15
2023-03-26T13:57:01.891Z,1.40
2023-03-26T14:02:05.152Z,1.08
2023-03-26T14:04:37.057Z,1.30
2023-03-26T14:07:12.063Z,1.10
2023-03-26T14:09:45.751Z,1.42
2023-03-26T14:12:24.472Z,0.82
2023-03-26T14:14:55.156Z,1.00
2023-03-26T14:17:26.941Z,1.10
2023-03-26T14:20:23.460Z,1.17
2023-03-26T14:23:04.454Z,1.77
2023-03-26T14:25:45.819Z,1.33
2023-03-26T14:28:31.638Z,1.80
2023-03-26T14:31:14.993Z,1.58
2023-03-26T14:33:59.120Z,1.98
2023-03-26T14:36:43.920Z,1.40
2023-03-26T14:39:39.773Z,1.25
2023-03-26T14:42:17.943Z,1.55
2023-03-26T14:45:20.784Z,0.98
2023-03-26T14:48:07.889Z,1.10
2023-03-26T14:51:01.292Z,1.20
2023-03-26T14:53:33.033Z,1.05
2023-03-26T14:56:38.797Z,2.25
2023-03-26T14:59:50.226Z,1.50
2023-03-26T15:03:02.001Z,1.20
2023-03-26T15:05:51.245Z,1.60
2023-03-26T15:08:56.470Z,1.15
2023-03-26T15:11:29.719Z,1.65
2023-03-26T15:14:06.046Z,1.23
2023-03-26T15:17:13.460Z,1.27
2023-03-26T15:20:15.694Z,1.83
2023-03-26T15:23:23.469Z,1.35
2023-03-26T15:26:26.062Z,1.30
2023-03-26T15:29:19.723Z,1.20
2023-03-26T15:32:25.903Z,1.40
2023-03-26T15:35:19.685Z,1.85
2023-03-26T15:38:37.403Z,1.33
2023-03-26T15:41:16.063Z,1.63
2023-03-26T15:44:24.922Z,1.27
2023-03-26T15:46:59.270Z,1.13
2023-03-26T15:49:36.766Z,1.05
2023-03-26T15:52:15.958Z,1.42
2023-03-26T15:54:51.632Z,1.38
2023-03-26T15:57:28.916Z,0.88
2023-03-26T16:00:29.852Z,1.95
2023-03-26T16:03:19.490Z,1.30
2023-03-26T16:06:07.863Z,1.30
2023-03-26T16:08:43.290Z,1.60
2023-03-26T16:11:10.215Z,1.33
2023-03-26T16:13:38.469Z,1.38
2023-03-26T16:16:23.650Z,1.27
2023-03-26T16:19:18.078Z,1.73
2023-03-26T16:21:55.306Z,1.35
2023-03-26T16:24:30.527Z,1.10
2023-03-26T16:27:03.546Z,1.20
2023-03-26T16:29:31.015Z,1.77
2023-03-26T16:32:15.869Z,1.10
2023-03-26T16:34:50.322Z,1.40
2023-03-26T16:37:41.453Z,0.95
2023-03-26T16:40:33.162Z,1.67
2023-03-26T16:43:27.375Z,1.48
2023-03-26T16:46:03.914Z,1.38
2023-03-26T16:48:38.475Z,1.95
2023-03-26T16:51:13.147Z,4.38
2023-03-26T16:53:47.968Z,2.63
2023-03-26T16:56:28.927Z,2.40
2023-03-26T16:58:59.112Z,3.45
2023-03-26T17:01:39.770Z,3.60
2023-03-26T17:04:12.933Z,3.25
2023-03-26T17:06:55.955Z,1.75
2023-03-26T17:09:31.256Z,2.45
2023-03-26T17:12:06.602Z,2.00
2023-03-26T17:14:50.836Z,1.70
2023-03-26T17:17:38.163Z,2.00
2023-03-26T17:20:16.359Z,2.35
2023-03-26T17:22:47.630Z,1.80
2023-03-26T17:25:28.465Z,2.08
2023-03-26T17:28:15.493Z,2.28
2023-03-26T17:31:02.189Z,2.00
2023-03-26T17:33:32.418Z,2.30
2023-03-26T17:36:27.784Z,2.42
2023-03-26T17:39:03.251Z,2.78
2023-03-26T17:41:49.846Z,2.95
2023-03-26T17:44:45.968Z,3.13
2023-03-26T17:47:31.487Z,4.53
2023-03-26T17:50:07.563Z,4.32
2023-03-26T17:52:45.314Z,4.25
2023-03-26T17:55:17.275Z,6.40
2023-03-26T17:57:47.568Z,4.65
2023-03-26T18:00:20.548Z,3.80
2023-03-26T18:02:53.047Z,3.83
2023-03-26T18:05:21.819Z,3.63
2023-03-26T18:08:23.948Z,4.13
2023-03-26T18:11:20.136Z,4.43
2023-03-26T18:14:10.185Z,5.47
2023-03-26T18:16:41.696Z,9.00
2023-03-26T18:19:13.368Z,7.97
2023-03-26T18:21:40.283Z,11.15
2023-03-26T18:24:13.399Z,9.02
2023-03-26T18:26:42.373Z,12.82
2023-03-26T18:29:17.220Z,10.73
2023-03-26T18:31:48.139Z,10.07
2023-03-26T18:34:16.549Z,8.60
2023-03-26T18:36:43.128Z,7.15
2023-03-26T18:39:12.466Z,7.15
2023-03-26T18:41:41.153Z,6.82
2023-03-26T18:44:14.144Z,5.68
2023-03-26T18:46:41.833Z,5.68
2023-03-26T18:49:13.419Z,5.55
2023-03-26T18:51:54.142Z,4.90
2023-03-26T18:54:24.783Z,5.65
2023-03-26T18:56:51.772Z,5.13
2023-03-26T18:59:25.664Z,5.60
2023-03-26T19:01:52.497Z,4.88
2023-03-26T19:04:21.421Z,5.88
2023-03-26T19:06:48.391Z,6.80
2023-03-26T19:09:30.447Z,3.65
2023-03-26T19:12:04.636Z,3.65
2023-03-26T19:14:31.351Z,3.55
2023-03-26T19:17:00.341Z,3.80
2023-03-26T19:19:32.536Z,3.13
2023-03-26T19:21:59.848Z,2.60
2023-03-26T19:24:27.014Z,3.72
2023-03-26T19:26:53.896Z,3.60
2023-03-26T19:29:25.549Z,3.50
2023-03-26T19:31:52.589Z,4.03
2023-03-26T19:34:26.338Z,3.35
2023-03-26T19:36:56.749Z,4.47
2023-03-26T19:39:36.589Z,4.00
2023-03-26T19:42:05.433Z,2.70
2023-03-26T19:44:32.313Z,3.05
2023-03-26T19:47:02.202Z,3.67
2023-03-26T19:49:30.373Z,5.10
2023-03-26T19:52:11.089Z,4.78
2023-03-26T19:55:00.190Z,4.57
2023-03-26T19:57:32.246Z,3.47
2023-03-26T19:59:59.399Z,2.85
2023-03-26T20:02:26.726Z,2.38
2023-03-26T20:04:53.397Z,2.50
2023-03-26T20:07:22.442Z,3.00
2023-03-26T20:10:03.062Z,2.85
2023-03-26T20:12:29.750Z,3.95
2023-03-26T20:14:56.726Z,3.78
2023-03-26T20:17:23.320Z,4.72
2023-03-26T20:19:49.985Z,3.55
2023-03-26T20:22:18.470Z,3.20
2023-03-26T20:24:46.785Z,2.63
2023-03-26T20:27:14.236Z,3.08
2023-03-26T20:29:41.156Z,3.25
2023-03-26T20:32:17.916Z,2.95
2023-03-26T20:34:44.471Z,2.95
2023-03-26T20:37:11.083Z,4.47
2023-03-26T20:39:37.630Z,3.03
2023-03-26T20:42:05.688Z,2.60
2023-03-26T20:44:32.287Z,3.05
2023-03-26T20:46:58.907Z,3.03
2023-03-26T20:49:25.659Z,2.90
2023-03-26T20:51:52.366Z,2.63
2023-03-26T20:54:20.763Z,2.67
2023-03-26T20:56:47.434Z,2.72
2023-03-26T20:59:18.549Z,2.47
2023-03-26T21:01:45.597Z,1.90
2023-03-26T21:04:12.136Z,2.85
2023-03-26T21:06:38.761Z,2.95
2023-03-26T21:09:06.204Z,2.30
2023-03-26T21:11:45.101Z,2.58
2023-03-26T21:14:19.440Z,2.13
2023-03-26T21:16:46.971Z,2.53
2023-03-26T21:19:14.229Z,2.85
2023-03-26T21:22:06.306Z,3.40
2023-03-26T21:24:45.941Z,2.70
2023-03-26T21:27:20.563Z,2.70
2023-03-26T21:29:49.092Z,2.90
2023-03-26T21:32:16.176Z,2.13
2023-03-26T21:34:55.702Z,2.45
2023-03-26T21:37:25.116Z,2.53
2023-03-26T21:39:52.209Z,2.60
2023-03-26T21:42:19.397Z,2.78
2023-03-26T21:44:48.085Z,2.55
2023-03-26T21:47:15.260Z,2.08
2023-03-26T21:49:42.299Z,2.83
2023-03-26T21:52:12.484Z,2.28
2023-03-26T21:54:41.267Z,2.90
2023-03-26T21:57:23.108Z,2.40
2023-03-26T22:00:02.959Z,2.30
2023-03-26T22:02:40.034Z,2.53
2023-03-26T22:05:13.390Z,2.13
2023-03-26T22:10:11.389Z,1.85
2023-03-26T22:12:37.966Z,2.53
2023-03-26T22:15:07.166Z,2.47
2023-03-26T22:17:33.776Z,2.38
2023-03-26T22:20:00.385Z,1.80
2023-03-26T22:22:27.007Z,1.73
2023-03-26T22:24:53.632Z,1.90
2023-03-26T22:27:20.299Z,2.40
2023-03-26T22:29:46.964Z,2.03
2023-03-26T22:32:15.107Z,2.25
2023-03-26T22:34:41.816Z,2.08
2023-03-26T22:37:08.437Z,2.00
2023-03-26T22:39:35.020Z,2.00
2023-03-26T22:42:02.765Z,2.13
2023-03-26T22:44:29.477Z,1.40
2023-03-26T22:46:56.064Z,1.30
2023-03-26T22:49:24.114Z,1.85
2023-03-26T22:51:50.698Z,1.77
2023-03-26T22:54:17.317Z,1.15
2023-03-26T22:56:44.024Z,2.08
2023-03-26T22:59:10.609Z,1.83
2023-03-26T23:01:37.707Z,1.75
2023-03-26T23:04:04.495Z,1.58
2023-03-26T23:06:32.449Z,1.48
2023-03-26T23:08:59.030Z,1.88
2023-03-26T23:11:25.664Z,1.95
2023-03-26T23:13:52.588Z,2.00
2023-03-26T23:16:19.351Z,1.40
2023-03-26T23:18:46.008Z,2.25
2023-03-26T23:21:14.842Z,1.60
2023-03-26T23:30:32.308Z,1.08
2023-03-26T23:36:27.219Z,1.58
2023-03-26T23:38:53.870Z,1.40
2023-03-26T23:41:22.903Z,1.70
2023-03-26T23:43:53.329Z,1.55
2023-03-26T23:46:25.410Z,1.57
2023-03-26T23:48:52.862Z,2.00
2023-03-26T23:51:20.568Z,1.75
2023-03-26T23:53:48.127Z,1.58
2023-03-26T23:56:14.758Z,2.17
2023-03-26T23:58:41.530Z,1.60
